createdAt,value
2022-10-05T00:00:13.935Z,15.46
2022-10-05T00:02:41.393Z,15.37
2022-10-05T00:05:17.460Z,15.36
2022-10-05T00:07:44.967Z,15.28
2022-10-05T00:10:16.876Z,15.32
2022-10-05T00:12:45.416Z,15.23
2022-10-05T00:15:14.407Z,15.26
2022-10-05T00:17:42.737Z,15.18
2022-10-05T00:20:21.146Z,15.16
2022-10-05T00:22:48.626Z,15.19
2022-10-05T00:25:18.764Z,15.25
2022-10-05T00:27:49.487Z,15.37
2022-10-05T00:30:18.080Z,15.40
2022-10-05T00:32:45.862Z,15.30
2022-10-05T00:35:14.253Z,15.31
2022-10-05T00:37:42.054Z,15.32
2022-10-05T00:40:15.968Z,15.38
2022-10-05T00:42:51.342Z,15.29
2022-10-05T00:45:21.663Z,15.22
2022-10-05T00:47:55.041Z,15.17
2022-10-05T00:50:39.538Z,15.16
2022-10-05T00:53:11.404Z,15.18
2022-10-05T00:55:44.784Z,15.27
2022-10-05T00:58:18.890Z,15.33
2022-10-05T01:00:52.761Z,15.26
2022-10-05T01:03:26.700Z,15.19
2022-10-05T01:06:01.247Z,15.12
2022-10-05T01:08:36.778Z,15.21
2022-10-05T01:11:09.415Z,15.15
2022-10-05T01:13:44.141Z,15.16
2022-10-05T01:16:16.099Z,15.20
2022-10-05T01:18:50.285Z,15.10
2022-10-05T01:21:20.595Z,15.09
2022-10-05T01:24:18.248Z,15.00
2022-10-05T01:26:59.871Z,15.03
2022-10-05T01:29:33.977Z,15.10
2022-10-05T01:32:06.576Z,15.07
2022-10-05T01:34:37.626Z,15.18
2022-10-05T01:37:09.044Z,15.16
2022-10-05T01:39:40.597Z,15.09
2022-10-05T01:42:13.093Z,15.13
2022-10-05T01:44:45.747Z,15.10
2022-10-05T01:47:17.295Z,15.07
2022-10-05T01:49:48.394Z,14.95
2022-10-05T01:52:21.612Z,14.89
2022-10-05T01:54:56.226Z,14.84
2022-10-05T01:57:29.428Z,14.88
2022-10-05T02:00:03.245Z,14.86
2022-10-05T02:02:32.572Z,14.97
2022-10-05T02:05:04.512Z,14.93
2022-10-05T02:07:36.191Z,14.90
2022-10-05T02:10:06.829Z,14.87
2022-10-05T02:12:36.429Z,14.81
2022-10-05T02:15:09.154Z,14.77
2022-10-05T02:17:40.018Z,14.77
2022-10-05T02:20:10.034Z,14.72
2022-10-05T02:22:39.322Z,14.69
2022-10-05T02:25:10.007Z,14.63
2022-10-05T02:27:40.620Z,14.61
2022-10-05T02:30:15.564Z,14.14
2022-10-05T02:32:45.827Z,14.54
2022-10-05T02:35:15.059Z,14.47
2022-10-05T02:37:46.401Z,14.49
2022-10-05T02:40:20.138Z,14.45
2022-10-05T02:42:52.327Z,14.48
2022-10-05T02:45:24.698Z,14.52
2022-10-05T02:47:59.034Z,14.46
2022-10-05T02:50:29.520Z,14.46
2022-10-05T02:53:02.703Z,14.58
2022-10-05T02:55:34.812Z,14.49
2022-10-05T02:58:07.050Z,14.48
2022-10-05T03:00:40.042Z,14.54
2022-10-05T03:03:10.342Z,14.54
2022-10-05T03:05:40.110Z,14.54
2022-10-05T03:08:10.581Z,14.45
2022-10-05T03:10:40.734Z,14.49
2022-10-05T03:13:10.666Z,14.59
2022-10-05T03:15:46.216Z,14.51
2022-10-05T03:18:20.990Z,14.46
2022-10-05T03:20:54.960Z,14.50
2022-10-05T03:23:29.379Z,14.45
2022-10-05T03:26:08.565Z,14.47
2022-10-05T03:28:41.475Z,14.61
2022-10-05T03:31:18.293Z,14.57
2022-10-05T03:33:49.021Z,14.53
2022-10-05T03:36:22.383Z,14.49
2022-10-05T03:38:54.603Z,14.46
2022-10-05T03:41:25.743Z,14.49
2022-10-05T03:44:01.072Z,14.56
2022-10-05T03:46:35.221Z,14.46
2022-10-05T03:49:08.041Z,14.48
2022-10-05T03:51:36.443Z,14.44
2022-10-05T03:54:06.506Z,14.45
2022-10-05T03:56:37.221Z,14.47
2022-10-05T03:59:09.192Z,14.45
2022-10-05T04:01:40.793Z,14.47
2022-10-05T04:04:12.660Z,14.48
2022-10-05T04:06:43.332Z,14.53
2022-10-05T04:09:13.016Z,14.49
2022-10-05T04:11:44.424Z,14.47
2022-10-05T04:14:14.055Z,14.53
2022-10-05T04:16:45.932Z,14.57
2022-10-05T04:19:15.904Z,14.63
2022-10-05T04:21:49.965Z,14.53
2022-10-05T04:24:19.200Z,14.62
2022-10-05T04:26:50.570Z,14.64
2022-10-05T04:29:25.422Z,14.61
2022-10-05T04:32:04.248Z,14.65
2022-10-05T04:34:39.844Z,14.63
2022-10-05T04:37:09.667Z,14.58
2022-10-05T04:39:42.305Z,14.57
2022-10-05T04:42:14.945Z,14.60
2022-10-05T04:44:49.236Z,14.60
2022-10-05T04:47:36.316Z,14.59
2022-10-05T04:50:16.712Z,14.65
2022-10-05T04:52:50.995Z,14.74
2022-10-05T04:55:23.349Z,14.65
2022-10-05T04:57:52.431Z,14.67
2022-10-05T05:00:24.198Z,14.63
2022-10-05T05:03:04.663Z,14.58
2022-10-05T05:05:53.111Z,14.70
2022-10-05T05:08:35.900Z,14.65
2022-10-05T05:11:12.458Z,14.61
2022-10-05T05:13:54.716Z,14.69
2022-10-05T05:16:27.992Z,14.72
2022-10-05T05:19:08.033Z,14.74
2022-10-05T05:21:40.832Z,14.78
2022-10-05T05:24:12.532Z,14.66
2022-10-05T05:26:50.758Z,14.64
2022-10-05T05:29:22.740Z,14.59
2022-10-05T05:31:54.061Z,14.63
2022-10-05T05:34:34.666Z,14.71
2022-10-05T05:37:07.507Z,14.67
2022-10-05T05:39:37.920Z,14.62
2022-10-05T05:42:17.669Z,14.65
2022-10-05T05:44:47.373Z,14.69
2022-10-05T05:47:19.600Z,14.66
2022-10-05T05:50:07.287Z,14.64
2022-10-05T05:52:39.698Z,14.59
2022-10-05T05:55:09.890Z,14.63
2022-10-05T05:57:40.214Z,14.72
2022-10-05T06:00:11.204Z,14.63
2022-10-05T06:02:42.275Z,14.69
2022-10-05T06:05:25.148Z,14.73
2022-10-05T06:07:54.960Z,14.63
2022-10-05T06:10:27.571Z,14.63
2022-10-05T06:13:01.505Z,14.67
2022-10-05T06:15:33.523Z,14.72
2022-10-05T06:18:03.647Z,14.74
2022-10-05T06:20:32.443Z,14.73
2022-10-05T06:23:04.111Z,14.75
2022-10-05T06:25:38.927Z,14.82
2022-10-05T06:28:10.632Z,14.78
2022-10-05T06:30:44.974Z,14.88
2022-10-05T06:33:18.730Z,14.82
2022-10-05T06:35:53.691Z,14.81
2022-10-05T06:38:30.864Z,14.87
2022-10-05T06:41:05.605Z,14.80
2022-10-05T06:43:44.686Z,15.04
2022-10-05T06:46:15.149Z,15.04
2022-10-05T06:48:47.981Z,14.88
2022-10-05T06:51:23.221Z,14.90
2022-10-05T06:53:57.738Z,14.98
2022-10-05T06:56:27.770Z,15.07
2022-10-05T06:59:00.452Z,15.16
2022-10-05T07:01:37.165Z,15.02
2022-10-05T07:04:20.057Z,14.97
2022-10-05T07:06:51.442Z,15.07
2022-10-05T07:09:27.770Z,15.11
2022-10-05T07:12:04.835Z,15.20
2022-10-05T07:14:40.911Z,15.09
2022-10-05T07:17:18.134Z,15.13
2022-10-05T07:19:52.381Z,14.92
2022-10-05T07:22:34.227Z,14.95
2022-10-05T07:25:08.421Z,15.04
2022-10-05T07:27:38.583Z,15.19
2022-10-05T07:30:07.404Z,14.93
2022-10-05T07:32:36.150Z,14.94
2022-10-05T07:35:06.997Z,15.01
2022-10-05T07:37:57.162Z,15.13
2022-10-05T07:40:28.469Z,15.08
2022-10-05T07:43:00.958Z,15.12
2022-10-05T07:45:30.253Z,15.02
2022-10-05T07:47:58.390Z,15.03
2022-10-05T07:50:29.420Z,15.05
2022-10-05T07:52:58.351Z,14.99
2022-10-05T07:55:31.007Z,14.96
2022-10-05T07:58:03.473Z,15.11
2022-10-05T08:00:43.121Z,14.97
2022-10-05T08:03:13.532Z,15.10
2022-10-05T08:05:42.624Z,15.07
2022-10-05T08:08:20.416Z,15.07
2022-10-05T08:10:53.084Z,15.11
2022-10-05T08:13:23.233Z,15.22
2022-10-05T08:15:53.777Z,15.06
2022-10-05T08:18:26.107Z,15.13
2022-10-05T08:20:55.223Z,15.14
2022-10-05T08:23:25.097Z,15.21
2022-10-05T08:25:58.205Z,15.15
2022-10-05T08:28:27.275Z,15.18
2022-10-05T08:30:57.956Z,15.20
2022-10-05T08:33:27.350Z,15.17
2022-10-05T08:36:02.198Z,15.27
2022-10-05T08:38:31.419Z,15.26
2022-10-05T08:41:17.470Z,15.30
2022-10-05T08:44:10.199Z,15.44
2022-10-05T08:46:49.798Z,15.35
2022-10-05T08:49:35.021Z,15.33
2022-10-05T08:52:12.290Z,15.38
2022-10-05T08:54:45.006Z,15.41
2022-10-05T08:57:27.483Z,15.51
2022-10-05T09:00:03.342Z,15.58
2022-10-05T09:02:40.892Z,15.58
2022-10-05T09:05:25.944Z,15.61
2022-10-05T09:08:20.746Z,15.55
2022-10-05T09:11:03.767Z,15.70
2022-10-05T09:13:39.576Z,15.70
2022-10-05T09:16:22.100Z,15.62
2022-10-05T09:19:00.378Z,15.69
2022-10-05T09:21:34.974Z,15.76
2022-10-05T09:24:11.022Z,15.93
2022-10-05T09:26:45.640Z,15.85
2022-10-05T09:29:26.189Z,16.03
2022-10-05T09:32:05.306Z,15.95
2022-10-05T09:34:49.543Z,15.90
2022-10-05T09:37:34.995Z,15.92
2022-10-05T09:40:29.759Z,15.99
2022-10-05T09:43:06.735Z,16.09
2022-10-05T09:45:47.970Z,16.08
2022-10-05T09:48:39.554Z,16.08
2022-10-05T09:51:31.544Z,16.04
2022-10-05T09:54:23.309Z,16.01
2022-10-05T09:57:05.174Z,16.07
2022-10-05T09:59:47.667Z,16.01
2022-10-05T10:02:21.567Z,16.15
2022-10-05T10:05:20.099Z,16.09
2022-10-05T10:08:01.380Z,16.19
2022-10-05T10:10:48.100Z,16.14
2022-10-05T10:13:25.434Z,16.33
2022-10-05T10:16:04.672Z,16.41
2022-10-05T10:18:43.975Z,16.44
2022-10-05T10:21:21.908Z,16.41
2022-10-05T10:24:01.550Z,16.51
2022-10-05T10:26:49.730Z,16.27
2022-10-05T10:29:28.105Z,16.16
2022-10-05T10:32:03.378Z,16.21
2022-10-05T10:34:45.722Z,16.30
2022-10-05T10:37:34.874Z,16.17
2022-10-05T10:40:15.413Z,16.16
2022-10-05T10:42:51.733Z,16.16
2022-10-05T10:45:32.338Z,16.21
2022-10-05T10:48:02.520Z,16.07
2022-10-05T10:50:40.669Z,16.15
2022-10-05T10:53:28.949Z,16.16
2022-10-05T10:56:06.459Z,16.23
2022-10-05T10:58:57.085Z,16.17
2022-10-05T11:01:30.784Z,16.11
2022-10-05T11:04:15.906Z,16.19
2022-10-05T11:06:59.629Z,16.41
2022-10-05T11:09:40.757Z,16.24
2022-10-05T11:12:23.073Z,16.25
2022-10-05T11:15:11.292Z,16.38
2022-10-05T11:17:58.036Z,16.46
2022-10-05T11:20:50.397Z,16.07
2022-10-05T11:23:27.038Z,16.47
2022-10-05T11:26:04.508Z,16.46
2022-10-05T11:28:39.631Z,16.47
2022-10-05T11:31:23.173Z,16.52
2022-10-05T11:34:06.693Z,16.62
2022-10-05T11:36:49.734Z,16.51
2022-10-05T11:39:30.315Z,16.68
2022-10-05T11:42:09.885Z,16.61
2022-10-05T11:44:55.329Z,16.56
2022-10-05T11:47:25.361Z,16.52
2022-10-05T11:49:59.640Z,16.48
2022-10-05T11:52:31.158Z,16.59
2022-10-05T11:55:11.686Z,16.60
2022-10-05T11:57:43.615Z,16.63
2022-10-05T12:00:14.731Z,16.77
2022-10-05T12:02:57.031Z,16.72
2022-10-05T12:05:32.399Z,16.82
2022-10-05T12:08:07.801Z,16.59
2022-10-05T12:10:37.760Z,16.54
2022-10-05T12:13:13.208Z,16.59
2022-10-05T12:15:44.677Z,16.67
2022-10-05T12:18:14.086Z,16.65
2022-10-05T12:20:47.448Z,16.71
2022-10-05T12:23:18.784Z,16.78
2022-10-05T12:25:49.661Z,16.83
2022-10-05T12:28:21.203Z,16.85
2022-10-05T12:31:04.051Z,16.78
2022-10-05T12:33:34.690Z,16.71
2022-10-05T12:36:08.213Z,16.82
2022-10-05T12:38:39.483Z,16.72
2022-10-05T12:41:12.869Z,16.40
2022-10-05T12:43:46.103Z,16.78
2022-10-05T12:46:19.987Z,16.94
2022-10-05T12:48:56.226Z,16.91
2022-10-05T12:51:32.974Z,17.10
2022-10-05T12:54:04.937Z,17.04
2022-10-05T12:56:37.806Z,16.95
2022-10-05T12:59:14.498Z,16.94
2022-10-05T13:01:43.985Z,16.95
2022-10-05T13:04:18.988Z,16.93
2022-10-05T13:06:52.407Z,16.92
2022-10-05T13:09:23.506Z,16.90
2022-10-05T13:11:52.699Z,16.93
2022-10-05T13:14:26.058Z,16.97
2022-10-05T13:16:59.358Z,16.82
2022-10-05T13:19:33.132Z,16.90
2022-10-05T13:22:16.939Z,16.88
2022-10-05T13:24:49.682Z,16.89
2022-10-05T13:27:19.274Z,16.89
2022-10-05T13:29:52.307Z,16.83
2022-10-05T13:32:24.401Z,16.92
2022-10-05T13:34:55.941Z,16.95
2022-10-05T13:37:31.705Z,16.99
2022-10-05T13:40:10.227Z,16.98
2022-10-05T13:42:43.482Z,17.00
2022-10-05T13:45:15.846Z,16.99
2022-10-05T13:47:47.479Z,17.03
2022-10-05T13:50:17.945Z,16.97
2022-10-05T13:52:55.572Z,17.01
2022-10-05T13:55:31.263Z,17.07
2022-10-05T13:58:05.726Z,17.06
2022-10-05T14:00:35.119Z,17.12
2022-10-05T14:03:04.479Z,17.20
2022-10-05T14:05:32.876Z,17.20
2022-10-05T14:08:17.146Z,17.24
2022-10-05T14:10:45.637Z,17.14
2022-10-05T14:13:21.125Z,17.08
2022-10-05T14:15:57.403Z,17.08
2022-10-05T14:18:25.523Z,17.19
2022-10-05T14:21:00.508Z,17.02
2022-10-05T14:23:30.296Z,17.12
2022-10-05T14:25:58.130Z,17.16
2022-10-05T14:28:28.451Z,17.13
2022-10-05T14:31:00.623Z,17.07
2022-10-05T14:33:29.029Z,17.00
2022-10-05T14:35:57.988Z,17.03
2022-10-05T14:38:29.339Z,16.99
2022-10-05T14:41:07.343Z,17.06
2022-10-05T14:43:35.483Z,17.02
2022-10-05T14:46:05.581Z,17.11
2022-10-05T14:48:39.389Z,17.14
2022-10-05T14:51:11.528Z,17.10
2022-10-05T14:53:40.899Z,17.09
2022-10-05T14:56:20.772Z,17.17
2022-10-05T14:58:59.363Z,17.37
2022-10-05T15:01:27.752Z,17.40
2022-10-05T15:04:02.149Z,17.66
2022-10-05T15:06:33.705Z,17.72
2022-10-05T15:09:17.587Z,17.58
2022-10-05T15:11:50.879Z,17.38
2022-10-05T15:14:20.354Z,17.27
2022-10-05T15:16:50.938Z,17.22
2022-10-05T15:19:20.949Z,17.13
2022-10-05T15:21:55.260Z,17.03
2022-10-05T15:24:26.590Z,16.98
2022-10-05T15:26:56.645Z,17.04
2022-10-05T15:29:41.160Z,17.00
2022-10-05T15:32:14.990Z,17.04
2022-10-05T15:34:49.055Z,16.96
2022-10-05T15:37:18.694Z,16.50
2022-10-05T15:39:50.313Z,16.98
2022-10-05T15:42:21.143Z,17.03
2022-10-05T15:44:54.034Z,16.95
2022-10-05T15:47:25.504Z,17.02
2022-10-05T15:50:00.434Z,17.04
2022-10-05T15:52:30.903Z,17.02
2022-10-05T15:55:05.810Z,17.09
2022-10-05T15:57:40.142Z,16.92
2022-10-05T16:00:11.325Z,16.89
2022-10-05T16:02:42.219Z,16.91
2022-10-05T16:05:41.527Z,16.96
2022-10-05T16:08:31.001Z,16.91
2022-10-05T16:10:59.043Z,16.83
2022-10-05T16:13:34.088Z,16.82
2022-10-05T16:16:12.617Z,16.83
2022-10-05T16:18:48.640Z,16.80
2022-10-05T16:21:22.054Z,16.77
2022-10-05T16:23:58.002Z,16.79
2022-10-05T16:26:32.682Z,16.80
2022-10-05T16:29:04.084Z,16.76
2022-10-05T16:31:37.326Z,16.75
2022-10-05T16:34:10.047Z,16.66
2022-10-05T16:36:44.721Z,16.66
2022-10-05T16:39:16.700Z,16.67
2022-10-05T16:41:48.285Z,16.65
2022-10-05T16:44:20.379Z,16.79
2022-10-05T16:46:50.538Z,16.74
2022-10-05T16:49:25.112Z,16.73
2022-10-05T16:51:57.671Z,16.61
2022-10-05T16:54:27.110Z,16.61
2022-10-05T16:56:57.692Z,16.61
2022-10-05T16:59:37.278Z,16.57
2022-10-05T17:02:09.215Z,16.55
2022-10-05T17:04:41.285Z,16.66
2022-10-05T17:07:17.834Z,16.73
2022-10-05T17:10:00.298Z,16.69
2022-10-05T17:12:40.198Z,16.52
2022-10-05T17:15:15.693Z,16.54
2022-10-05T17:17:52.676Z,16.58
2022-10-05T17:20:30.217Z,16.58
2022-10-05T17:23:00.456Z,16.58
2022-10-05T17:25:35.212Z,16.55
2022-10-05T17:28:16.224Z,16.50
2022-10-05T17:30:53.769Z,16.51
2022-10-05T17:33:23.804Z,16.51
2022-10-05T17:35:58.209Z,16.56
2022-10-05T17:38:45.434Z,16.52
2022-10-05T17:41:18.157Z,16.51
2022-10-05T17:44:00.491Z,16.49
2022-10-05T17:46:39.951Z,16.61
2022-10-05T17:49:17.247Z,16.54
2022-10-05T17:52:16.480Z,16.55
2022-10-05T17:55:30.271Z,16.57
2022-10-05T17:57:59.822Z,16.60
2022-10-05T18:00:40.649Z,16.18
2022-10-05T18:03:26.857Z,16.54
2022-10-05T18:06:09.480Z,16.59
2022-10-05T18:08:39.279Z,16.60
2022-10-05T18:11:12.003Z,16.60
2022-10-05T18:13:41.566Z,16.63
2022-10-05T18:16:10.816Z,16.66
2022-10-05T18:18:56.303Z,16.24
2022-10-05T18:21:38.994Z,16.55
2022-10-05T18:24:23.890Z,16.59
2022-10-05T18:26:59.615Z,16.63
2022-10-05T18:30:06.342Z,16.60
2022-10-05T18:32:39.809Z,16.73
2022-10-05T18:35:11.404Z,16.68
2022-10-05T18:37:46.841Z,16.67
2022-10-05T18:40:25.810Z,16.79
2022-10-05T18:43:00.378Z,16.74
2022-10-05T18:45:33.414Z,16.75
2022-10-05T18:48:09.352Z,16.74
2022-10-05T18:50:43.729Z,16.75
2022-10-05T18:53:17.946Z,16.69
2022-10-05T18:55:48.770Z,16.51
2022-10-05T18:58:18.976Z,16.48
2022-10-05T19:00:52.888Z,16.15
2022-10-05T19:03:24.446Z,16.15
2022-10-05T19:05:57.387Z,15.97
2022-10-05T19:08:29.604Z,15.94
2022-10-05T19:11:04.973Z,15.76
2022-10-05T19:13:37.798Z,15.65
2022-10-05T19:16:18.345Z,15.66
2022-10-05T19:18:56.246Z,15.57
2022-10-05T19:21:27.673Z,15.38
2022-10-05T19:24:06.832Z,15.28
2022-10-05T19:26:47.615Z,15.25
2022-10-05T19:29:22.643Z,15.04
2022-10-05T19:31:54.173Z,14.91
2022-10-05T19:34:31.113Z,14.88
2022-10-05T19:37:02.251Z,14.81
2022-10-05T19:39:34.522Z,14.77
2022-10-05T19:42:11.437Z,14.67
2022-10-05T19:44:47.209Z,14.63
2022-10-05T19:47:19.773Z,14.55
2022-10-05T19:49:50.035Z,14.54
2022-10-05T19:52:22.176Z,14.42
2022-10-05T19:55:01.641Z,14.44
2022-10-05T19:57:31.037Z,14.40
2022-10-05T19:59:59.163Z,14.41
2022-10-05T20:02:27.042Z,14.34
2022-10-05T20:04:56.518Z,14.45
2022-10-05T20:07:23.978Z,14.39
2022-10-05T20:09:52.840Z,14.33
2022-10-05T20:12:22.541Z,14.44
2022-10-05T20:15:22.172Z,14.46
2022-10-05T20:18:08.851Z,14.40
2022-10-05T20:20:38.615Z,14.40
2022-10-05T20:23:25.282Z,14.35
2022-10-05T20:26:11.058Z,14.28
2022-10-05T20:28:39.156Z,14.34
2022-10-05T20:31:07.529Z,14.35
2022-10-05T20:33:36.524Z,14.34
2022-10-05T20:36:04.824Z,14.39
2022-10-05T20:38:37.385Z,14.42
2022-10-05T20:41:08.153Z,14.35
2022-10-05T20:43:39.586Z,14.38
2022-10-05T20:46:07.715Z,14.38
2022-10-05T20:48:36.652Z,14.35
2022-10-05T20:51:04.149Z,14.30
2022-10-05T20:53:31.664Z,14.16
2022-10-05T20:56:02.343Z,14.08
2022-10-05T20:58:30.086Z,14.05
2022-10-05T21:01:15.454Z,13.96
2022-10-05T21:03:44.316Z,13.89
2022-10-05T21:06:11.868Z,13.77
2022-10-05T21:08:39.518Z,13.67
2022-10-05T21:11:08.879Z,13.77
2022-10-05T21:13:39.075Z,13.67
2022-10-05T21:16:06.960Z,13.66
2022-10-05T21:18:34.630Z,13.66
2022-10-05T21:21:03.986Z,13.59
2022-10-05T21:23:34.151Z,13.57
2022-10-05T21:26:02.084Z,13.48
2022-10-05T21:28:30.471Z,13.50
2022-10-05T21:30:58.284Z,13.35
2022-10-05T21:33:26.222Z,13.44
2022-10-05T21:35:54.076Z,13.36
2022-10-05T21:38:26.141Z,13.38
2022-10-05T21:40:55.826Z,13.38
2022-10-05T21:43:23.451Z,13.43
2022-10-05T21:45:50.911Z,13.40
2022-10-05T21:48:19.241Z,13.30
2022-10-05T21:50:47.116Z,13.37
2022-10-05T21:53:17.007Z,13.31
2022-10-05T21:55:48.351Z,13.33
2022-10-05T21:58:16.173Z,13.33
2022-10-05T22:00:43.646Z,13.40
2022-10-05T22:03:11.319Z,13.35
2022-10-05T22:05:39.303Z,13.26
2022-10-05T22:08:07.590Z,13.20
2022-10-05T22:10:35.228Z,13.13
2022-10-05T22:13:04.589Z,13.10
2022-10-05T22:15:32.197Z,13.13
2022-10-05T22:18:00.689Z,13.12
2022-10-05T22:20:28.359Z,12.93
2022-10-05T22:22:55.996Z,13.01
2022-10-05T22:25:23.690Z,12.99
2022-10-05T22:27:51.396Z,12.88
2022-10-05T22:30:20.996Z,13.05
2022-10-05T22:32:48.713Z,13.07
2022-10-05T22:35:16.192Z,13.00
2022-10-05T22:37:43.701Z,12.98
2022-10-05T22:40:11.619Z,13.06
2022-10-05T22:42:40.552Z,13.07
2022-10-05T22:45:09.056Z,13.06
2022-10-05T22:47:37.847Z,13.08
2022-10-05T22:50:05.524Z,13.19
2022-10-05T22:52:32.935Z,13.17
2022-10-05T22:55:00.602Z,12.67
2022-10-05T22:57:28.043Z,13.22
2022-10-05T22:59:55.477Z,13.23
2022-10-05T23:02:22.918Z,13.39
2022-10-05T23:04:51.992Z,13.35
2022-10-05T23:07:19.522Z,13.38
2022-10-05T23:09:46.979Z,13.37
2022-10-05T23:12:14.994Z,13.29
2022-10-05T23:14:42.458Z,13.29
2022-10-05T23:17:09.863Z,13.24
2022-10-05T23:19:37.310Z,13.19
2022-10-05T23:22:06.141Z,13.25
2022-10-05T23:24:34.738Z,13.27
2022-10-05T23:27:02.226Z,13.30
2022-10-05T23:29:29.654Z,13.31
2022-10-05T23:31:57.072Z,13.19
2022-10-05T23:34:25.633Z,13.26
2022-10-05T23:36:53.112Z,13.23
2022-10-05T23:39:21.978Z,13.24
2022-10-05T23:41:49.845Z,13.18
2022-10-05T23:44:17.389Z,13.08
2022-10-05T23:46:44.867Z,13.10
2022-10-05T23:49:14.761Z,13.08
2022-10-05T23:51:42.389Z,13.17
2022-10-05T23:54:09.860Z,13.08
2022-10-05T23:56:39.027Z,13.16
2022-10-05T23:59:06.464Z,12.69
